Orto / Ocaso: 05:12 / 19:33 UTC (Datos para LEAX 19-07-2018)

[fuente: ADDS]

METAR:


LEMG 190200Z 28004KT CAVOK 22/17 Q1015 NOSIG =
LEGR 190200Z AUTO 00000KT 9999 NCD 19/10 Q1017 =
LEZL 190200Z 19007KT CAVOK 20/16 Q1015 NOSIG =
LEAM 190200Z AUTO VRB02KT 9999 NCD 24/19 Q1014 =
LEBA 190200Z AUTO 25004KT 9999 NCD 20/12 Q1015 =
LEJR 190200Z AUTO VRB02KT 9999 NCD 16/14 Q1015 =
GEML 190200Z AUTO 33003KT 230V020 CAVOK 24/19 Q1015 =
LXGB 190150Z AUTO 24005KT 9999 // NCD 21/16 Q1015 =

TAFOR:


TAF LEMG 182300Z 1900/1924 VRB02KT CAVOK TX32/1912Z TN21/1905Z TEMPO 1902/1906 28007KT BECMG 1908/1910 14009KT BECMG 1918/1920 VRB02KT =
TAF LEGR 182000Z 1821/1921 VRB02KT CAVOK TX38/1915Z TN16/1905Z BECMG 1911/1913 28010KT =
TAF LEZL 182000Z 1821/1921 23008KT CAVOK TX35/1915Z TN18/1905Z =
TAF LEAM 182000Z 1821/1921 VRB02KT CAVOK TX27/1910Z TN21/1905Z BECMG 1908/1910 21012KT =
TAF LEBA 181700Z 1818/1903 25005KT CAVOK =
TAF LEJR 182300Z 1900/1924 21005KT CAVOK TX34/1914Z TN15/1905Z PROB40 TEMPO 1903/1906 4000 BR TEMPO 1913/1919 27011KT =
TAF GEML 182000Z 1821/1921 03005KT 9999 FEW010 TX29/1912Z TN21/1905Z =

Recuerde que, aunque regularmente actualizada, la información meteorológica aquí presentada no debe ser utilizada para la planificación de vuelos. Si lo desea, puede consultar la información meteorológica adecuada, tanto de aeródromos como en ruta, por las vías oficialmente establecidas en la legislación -> AQUí